LFPV METAR and TAF | Updated Today

LFPV METAR

Villacoublay-Vélizy (BA 107) Air Base

Observation time: 24 min. ago

LFPV 062100Z AUTO 00000KT CAVOK 10/06 Q1030 NOSIG

Need help? Read our tutorial on how to read METARs or read the parsed version below.

Villacoublay-Vélizy (BA 107) Air Base (LFPV) METAR

  • Weather conditions on Thu, 06 Oct 2022 21:00:00 +0000 (24 min. ago):
  • Present conditions: Dry
  • Clouds: Clear skies
  • Visibility: Greater than 10 km
  • Wind: Calm
  • Temperature: 10 celsius
  • Dew point: 6 celsius
  • Pressure: 1030 millibars
  • Remarks: None


Useful to know...